Terminal Aerodrome Forecast
Issued by NWS

Home | Current Version | Previous Version | Text Only | Print | Product List | Glossary On
Versions: 1 2 3 4 5 6 7 8 9 10 11 12 13 14 15 16 17 18 19 20 21 22 23 24 25 26 27 28 29 30 31 32 33 34 35 36
000
FTUS43 KDLH 150500
TAFHYR
TAF
KHYR 150520Z 1506/1606 17004KT 3/4SM -DZ BR OVC003
     FM151000 VRB02KT 1SM -RA BR OVC004
     FM160100 35009KT 2SM -RAPL BR OVC007
     FM160500 35011KT 2SM -SN BR OVC007=

USA.gov is the U.S. government's official web portal to all federal, state and local government web resources and services.